Flight Track Log - Related Links

Times and Time Zones

All times are in EDT time to prevent confusion due to time zone crossing. See the DAL5880 flight status page for this flight to view local times or setup timezone preferences in your user account.

Time Position Orientation Groundspeed Altitude Reporting Facility
EDT Latitude Longitude Course Direction KTS MPH feet Rate Location/Type
Tue 12:12:23 PM 40.7583 -73.8242 48° Northeast 179 206 2,100  Level Boston Center
Tue 12:13:24 PM 40.7975 -73.7611 51° Northeast 272 313 5,000 2,878 Climbing Boston Center
Tue 12:14:26 PM 40.8625 -73.7150 28° Northeast 265 305 8,000 2,390 Climbing Boston Center
Tue 12:15:27 PM 40.9367 -73.6600 29° Northeast 301 346 9,900 984 Climbing Boston Center
Tue 12:16:28 PM 41.0239 -73.5867 32° Northeast 327 376 10,000 780 Climbing Boston Center
Tue 12:17:00 PM 41.2002 -73.3497 48° Northeast  Level FlightAware Approximate
Tue 12:17:30 PM 41.1000 -73.5139 36° Northeast 334 384 11,500  Level Boston Center
Tue 12:18:31 PM 41.1764 -73.4119 45° Northeast 364 419 14,000 2,754 Climbing Boston Center
Tue 12:19:32 PM 41.2525 -73.3106 45° Northeast 378 435 17,100 2,439 Climbing Boston Center
Tue 12:20:34 PM 41.2964 -73.1758 67° East 386 444 19,000 927 Climbing Boston Center
Tue 12:21:35 PM 41.3311 -73.0389 71° East 391 450 19,000  Level Boston Center
Tue 12:22:36 PM 41.3656 -72.9014 72° East 392 451 19,000  Level Boston Center
Tue 12:23:38 PM 41.4028 -72.7519 72° East 392 451 19,000  Level Boston Center
Tue 12:24:39 PM 41.4369 -72.6128 72° East 395 455 19,000  Level Boston Center
Tue 12:25:40 PM 41.4728 -72.4733 71° East 401 461 19,000  Level Boston Center
Tue 12:26:42 PM 41.5100 -72.3225 72° East 401 461 19,000  Level Boston Center
Tue 12:27:43 PM 41.5492 -72.1858 69° East 400 460 19,000  Level Boston Center
Tue 12:28:44 PM 41.5897 -72.0483 68° East 400 460 19,000  Level Boston Center
Tue 12:29:46 PM 41.6297 -71.9119 69° East 398 458 19,000 -49 Level Boston Center
Tue 12:30:47 PM 41.6728 -71.7617 69° East 399 459 18,900 -689 Descending Boston Center
Tue 12:31:48 PM 41.7100 -71.6317 69° East 396 456 17,600 -1,672 Descending Boston Center
Tue 12:32:49 PM 41.7525 -71.4872 68° East 389 448 15,500 -1,805 Descending Boston Center
Tue 12:33:51 PM 41.7892 -71.3581 69° East 378 435 13,900 -1,561 Descending Boston Center
Tue 12:34:52 PM 41.8244 -71.2339 69° East 361 415 12,300 -1,377 Descending Boston Center
Tue 12:35:53 PM 41.8642 -71.1033 68° East 353 406 11,100 -590 Descending Boston Center
Tue 12:36:54 PM 41.9119 -70.9936 60° Northeast 343 395 11,100  Level Boston Center
Tue 12:37:56 PM 41.9597 -70.8844 59° Northeast 340 391 11,100  Level Boston Center
Tue 12:38:57 PM 42.0017 -70.7847 60° Northeast 334 384 11,100 -738 Level Boston Center
Tue 12:39:58 PM 42.0567 -70.6942 51° Northeast 313 360 9,600 -1,610 Descending Boston Center
Tue 12:41:00 PM 42.1172 -70.6136 45° Northeast 310 357 7,800 -1,463 Descending Boston Center
Tue 12:42:01 PM 42.2011 -70.5900 12° North 306 352 6,600 -1,131 Descending Boston Center
Tue 12:43:02 PM 42.2817 -70.5678 12° North 300 345 5,500 -1,180 Descending Boston Center
Tue 12:44:03 PM 42.3697 -70.6000 345° North 280 322 4,200 -738 Descending Boston Center
Tue 12:45:04 PM 42.4417 -70.6383 339° North 277 319 4,000 -439 Descending Boston Center
Tue 12:46:06 PM 42.4942 -70.6992 319° Northwest 264 304 3,300 -488 Descending Boston Center
Tue 12:47:07 PM 42.5403 -70.7756 309° West 263 303 3,000 -148 Descending Boston Center
Tue 12:48:08 PM 42.5381 -70.8608 268° West 216 249 3,000  Level Boston Center
Tue 12:49:09 PM 42.5264 -70.9183 255° West 166 191 3,000 -293 Level Boston Center
Tue 12:50:11 PM 42.4858 -70.9464 207° Southwest 168 193 2,400 -732 Descending Boston Center
Tue 12:51:12 PM 42.4411 -70.9689 200° South 163 188 1,500 -787 Descending Boston Center
Tue 12:52:13 PM 42.4075 -70.9847 199° South 130 150 800 -689 Descending Boston Center
Tue 12:53:14 PM 42.3758 -70.9992 199° South 119 137 100 -689 Descending Boston Center

Login

Don't have an account? Register now (free) for customized features, flight alerts, and more!